Time;durP1;ratioP1;P1;durP2;ratioP2;P2;SDS_P1;SDS_P2;PMS_P1;PMS_P2;Temp;Humidity;BMP_temperature;BMP_pressure;BME280_temperature;BME280_humidity;BME280_pressure;Samples;Min_cycle;Max_cycle;Signal;HPM_P1;HPM_P2
2023/09/15 00:01:41;;;;;;;6.05;2.70;;;;;;;12.94;100.00;100799.16;5032846;28;20051;-73
2023/09/15 00:04:11;;;;;;;6.63;2.38;;;;;;;12.87;100.00;100793.28;5042323;28;20048;-73
2023/09/15 00:06:40;;;;;;;8.02;2.70;;;;;;;12.75;100.00;100777.94;5054390;28;20087;-76
2023/09/15 00:09:15;;;;;;;6.72;2.53;;;;;;;12.86;100.00;100799.53;5055227;28;20570;-74
2023/09/15 00:11:47;;;;;;;9.38;2.42;;;;;;;12.87;100.00;100808.38;5053396;28;20451;-74
2023/09/15 00:14:16;;;;;;;7.30;3.17;;;;;;;12.70;100.00;100785.28;5049736;28;20040;-72
2023/09/15 00:16:45;;;;;;;7.07;2.38;;;;;;;12.71;100.00;100781.69;5044288;28;20144;-72
2023/09/15 00:19:16;;;;;;;5.28;2.40;;;;;;;12.74;100.00;100792.19;5052713;28;20045;-72
2023/09/15 00:21:47;;;;;;;6.28;2.40;;;;;;;12.78;100.00;100803.50;5028099;28;20504;-73
2023/09/15 00:24:17;;;;;;;5.88;2.20;;;;;;;12.79;100.00;100799.91;5033841;28;20045;-74
2023/09/15 00:26:45;;;;;;;6.40;2.50;;;;;;;12.80;100.00;100791.88;5040648;28;20033;-74
2023/09/15 00:29:13;;;;;;;7.95;2.42;;;;;;;12.79;100.00;100795.44;5038977;28;20489;-72
2023/09/15 00:31:42;;;;;;;5.60;2.42;;;;;;;12.76;100.00;100789.41;5028076;28;21045;-72
2023/09/15 00:34:14;;;;;;;5.35;2.40;;;;;;;12.79;100.00;100795.44;5032436;28;20523;-73
2023/09/15 00:36:45;;;;;;;6.25;2.53;;;;;;;12.77;100.00;100783.19;5049472;28;20087;-73
2023/09/15 00:39:14;;;;;;;5.22;2.38;;;;;;;12.84;100.00;100784.59;5038205;28;20128;-73
2023/09/15 00:41:44;;;;;;;5.72;2.25;;;;;;;12.81;100.00;100779.44;5038774;28;20048;-72
2023/09/15 00:44:12;;;;;;;5.10;2.08;;;;;;;12.81;100.00;100788.28;5034610;28;20496;-73
2023/09/15 00:46:42;;;;;;;6.85;3.22;;;;;;;12.57;100.00;100763.78;5037269;28;20594;-73
2023/09/15 00:49:11;;;;;;;9.88;2.75;;;;;;;12.75;100.00;100777.09;5044713;28;20049;-72
2023/09/15 00:51:40;;;;;;;5.03;2.35;;;;;;;12.77;100.00;100784.03;5040868;28;20052;-71
2023/09/15 00:54:08;;;;;;;5.80;2.38;;;;;;;12.75;100.00;100777.94;5032493;28;20099;-72
2023/09/15 00:56:37;;;;;;;6.45;2.47;;;;;;;12.78;100.00;100784.91;5035443;28;20038;-73
2023/09/15 00:59:10;;;;;;;5.35;2.35;;;;;;;12.85;100.00;100781.00;5044400;28;20726;-72
2023/09/15 01:01:40;;;;;;;7.55;2.65;;;;;;;12.81;100.00;100772.31;5054226;28;20049;-74
2023/09/15 01:04:10;;;;;;;10.52;2.92;;;;;;;12.75;100.00;100777.94;5029827;28;20045;-71
2023/09/15 01:06:39;;;;;;;5.90;2.50;;;;;;;12.67;100.00;100763.31;5037378;28;20496;-73
2023/09/15 01:09:08;;;;;;;6.97;2.80;;;;;;;12.68;100.00;100773.88;5037620;28;20049;-72
2023/09/15 01:11:36;;;;;;;5.60;2.60;;;;;;;12.68;100.00;100773.00;5041932;28;20055;-73
2023/09/15 01:14:04;;;;;;;5.63;2.28;;;;;;;12.60;100.00;100768.06;5032851;28;20080;-74
2023/09/15 01:16:38;;;;;;;5.28;2.30;;;;;;;12.65;100.00;100771.38;5035222;28;20505;-72
2023/09/15 01:19:25;;;;;;;6.70;2.30;;;;;;;12.58;100.00;100759.34;5037843;28;20061;-72
2023/09/15 01:22:24;;;;;;;4.28;2.30;;;;;;;12.59;100.00;100767.22;5040046;28;20467;-72
2023/09/15 01:25:45;;;;;;;4.80;2.50;;;;;;;12.64;100.00;100769.66;5027295;28;20500;-74
2023/09/15 01:28:29;;;;;;;5.97;2.42;;;;;;;12.61;100.00;100780.41;4943220;28;20133;-72
2023/09/15 01:31:01;;;;;;;4.57;2.50;;;;;;;12.59;100.00;100777.84;5022955;28;20512;-73
2023/09/15 01:33:31;;;;;;;5.65;2.38;;;;;;;12.43;100.00;100754.78;5042489;28;20045;-72
2023/09/15 01:36:03;;;;;;;8.82;3.20;;;;;;;12.42;100.00;100755.72;5037676;28;20404;-77
2023/09/15 01:38:32;;;;;;;6.72;2.75;;;;;;;12.43;100.00;100757.44;5027637;28;20052;-72
2023/09/15 01:41:00;;;;;;;6.80;2.85;;;;;;;12.38;100.00;100757.66;5040423;28;20069;-72
2023/09/15 01:43:28;;;;;;;6.20;2.47;;;;;;;12.51;100.00;100773.84;5047808;28;20042;-72
2023/09/15 01:45:57;;;;;;;6.70;2.10;;;;;;;12.47;100.00;100772.25;5037660;28;20105;-73
2023/09/15 01:48:27;;;;;;;6.18;2.50;;;;;;;12.37;100.00;100765.69;5022973;28;20455;-72
2023/09/15 01:50:57;;;;;;;5.55;2.35;;;;;;;12.38;100.00;100773.59;5048917;28;20131;-72
2023/09/15 01:53:26;;;;;;;5.05;2.50;;;;;;;12.29;100.00;100763.38;5028729;28;20045;-75
2023/09/15 01:55:54;;;;;;;6.05;2.90;;;;;;;12.38;100.00;100773.59;5032569;28;20203;-72
2023/09/15 01:58:22;;;;;;;4.85;2.67;;;;;;;12.34;100.00;100769.34;5031559;28;20045;-73
2023/09/15 02:00:52;;;;;;;7.47;2.75;;;;;;;12.31;100.00;100772.16;5044890;28;20451;-73
2023/09/15 02:03:20;;;;;;;5.55;2.45;;;;;;;12.22;100.00;100768.16;5020564;28;20053;-74
2023/09/15 02:05:50;;;;;;;5.57;2.60;;;;;;;12.19;100.00;100775.41;5032988;28;20049;-74
2023/09/15 02:08:20;;;;;;;8.68;2.92;;;;;;;12.10;100.00;100767.88;5038036;28;20041;-73
2023/09/15 02:10:48;;;;;;;5.32;2.78;;;;;;;12.16;100.00;100781.72;5037640;28;20501;-74
2023/09/15 02:13:16;;;;;;;6.70;2.80;;;;;;;12.10;100.00;100767.88;5037378;28;20083;-72
2023/09/15 02:15:45;;;;;;;8.18;3.05;;;;;;;12.10;100.00;100781.16;5030676;28;20497;-72
2023/09/15 02:18:14;;;;;;;7.47;2.85;;;;;;;12.06;100.00;100783.09;5055605;28;20046;-74
2023/09/15 02:20:42;;;;;;;4.35;2.75;;;;;;;12.02;100.00;100783.28;5041948;28;20341;-73
2023/09/15 02:23:12;;;;;;;6.88;3.80;;;;;;;11.99;100.00;100776.31;5040483;28;20140;-73
2023/09/15 02:25:40;;;;;;;16.92;10.23;;;;;;;11.89;100.00;100746.72;5033559;28;20041;-72
2023/09/15 02:28:08;;;;;;;7.80;3.47;;;;;;;12.09;100.00;100776.78;5033725;28;20496;-73
2023/09/15 02:30:38;;;;;;;8.02;2.92;;;;;;;12.09;100.00;100766.16;5039062;28;20140;-72
2023/09/15 02:33:06;;;;;;;8.68;3.50;;;;;;;12.06;100.00;100761.84;5032701;28;20057;-76
2023/09/15 02:35:34;;;;;;;8.48;3.15;;;;;;;12.05;100.00;100762.78;5027509;28;20060;-77
2023/09/15 02:38:06;;;;;;;7.03;3.33;;;;;;;12.05;100.00;100770.75;5043952;28;20045;-74
2023/09/15 02:40:35;;;;;;;6.47;2.75;;;;;;;12.03;100.00;100763.78;5035729;28;20540;-73
2023/09/15 02:43:04;;;;;;;4.82;3.25;;;;;;;11.99;100.00;100757.75;5039263;28;20128;-74
2023/09/15 02:45:35;;;;;;;9.52;3.00;;;;;;;11.94;100.00;100759.78;5016311;28;20174;-76
2023/09/15 02:48:06;;;;;;;5.05;2.83;;;;;;;11.82;100.00;100747.06;5036898;28;20037;-72
2023/09/15 02:50:35;;;;;;;8.07;3.20;;;;;;;11.85;100.00;100757.53;5035234;28;20619;-74
2023/09/15 02:53:03;;;;;;;7.65;2.92;;;;;;;11.87;100.00;100767.16;5039200;28;20038;-73
2023/09/15 02:55:31;;;;;;;6.15;3.38;;;;;;;11.87;100.00;100753.88;5028571;28;20364;-72
2023/09/15 02:58:00;;;;;;;8.38;3.22;;;;;;;11.89;100.00;100765.28;5034691;28;20056;-73
2023/09/15 03:00:28;;;;;;;6.93;2.72;;;;;;;11.84;100.00;100761.97;5041670;28;20048;-73
2023/09/15 03:02:57;;;;;;;5.13;2.80;;;;;;;11.78;100.00;100753.47;5019863;28;20509;-72
2023/09/15 03:05:27;;;;;;;4.75;3.08;;;;;;;11.84;100.00;100761.13;5015243;28;20509;-73
2023/09/15 03:07:56;;;;;;;6.53;2.83;;;;;;;11.68;100.00;100731.75;5046846;28;20037;-73
2023/09/15 03:10:24;;;;;;;7.88;3.08;;;;;;;11.87;100.00;100753.88;5036302;28;20103;-73
2023/09/15 03:12:53;;;;;;;4.22;3.03;;;;;;;11.84;100.00;100750.50;5036299;28;20155;-72
2023/09/15 03:15:27;;;;;;;5.57;3.05;;;;;;;11.77;100.00;100746.44;5015513;28;20210;-73
2023/09/15 03:17:55;;;;;;;8.50;3.03;;;;;;;11.73;100.00;100745.66;5038268;28;20041;-73
2023/09/15 03:20:23;;;;;;;5.07;2.95;;;;;;;11.76;100.00;100753.53;5022471;28;20084;-73
2023/09/15 03:22:53;;;;;;;6.72;2.97;;;;;;;11.75;100.00;100753.56;5038236;28;20140;-73
2023/09/15 03:25:22;;;;;;;10.30;3.50;;;;;;;11.76;100.00;100757.97;5024943;28;20083;-76
2023/09/15 03:27:50;;;;;;;5.82;2.80;;;;;;;11.70;100.00;100753.75;5035341;28;20049;-73
2023/09/15 03:30:19;;;;;;;7.05;2.70;;;;;;;11.70;100.00;100752.91;5028135;28;20049;-72
2023/09/15 03:32:50;;;;;;;4.93;2.80;;;;;;;11.69;100.00;100754.69;5042876;28;20045;-72
2023/09/15 03:35:18;;;;;;;8.48;3.60;;;;;;;11.64;100.00;100747.91;5026411;28;20045;-73
2023/09/15 03:37:46;;;;;;;7.22;3.20;;;;;;;11.63;100.00;100747.03;5034571;28;20054;-73
2023/09/15 03:40:14;;;;;;;8.93;3.85;;;;;;;11.64;100.00;100743.44;5020116;28;20145;-73
2023/09/15 03:42:42;;;;;;;6.22;3.17;;;;;;;11.64;100.00;100747.91;5034067;28;20087;-73
2023/09/15 03:45:10;;;;;;;6.03;3.40;;;;;;;11.57;100.00;100742.84;5028743;28;20128;-73
2023/09/15 03:47:38;;;;;;;6.35;3.08;;;;;;;11.53;100.00;100737.75;5028267;28;20041;-72
2023/09/15 03:50:09;;;;;;;6.40;3.13;;;;;;;11.53;100.00;100741.25;5043267;28;20041;-72
2023/09/15 03:52:37;;;;;;;6.93;3.42;;;;;;;11.45;100.00;100731.94;5041370;28;20049;-73
2023/09/15 03:55:07;;;;;;;9.00;3.40;;;;;;;11.46;100.00;100745.16;5041684;28;23111;-72
2023/09/15 03:57:35;;;;;;;7.10;3.47;;;;;;;11.43;100.00;100739.97;5031750;28;20056;-73
2023/09/15 04:00:05;;;;;;;6.07;3.50;;;;;;;11.41;100.00;100746.28;5041147;28;20091;-75
2023/09/15 04:02:40;;;;;;;9.77;4.03;;;;;;;11.36;100.00;100741.16;5042488;28;20049;-73
2023/09/15 04:05:11;;;;;;;7.60;3.63;;;;;;;11.36;100.00;100741.16;5043086;28;20666;-74
2023/09/15 04:07:39;;;;;;;9.23;3.35;;;;;;;11.35;100.00;100739.44;5035588;28;20041;-73
2023/09/15 04:10:08;;;;;;;8.02;3.53;;;;;;;11.33;100.00;100737.81;5044352;28;20054;-73
2023/09/15 04:12:38;;;;;;;7.40;3.72;;;;;;;11.32;100.00;100741.38;5037563;28;20459;-72
2023/09/15 04:15:09;;;;;;;8.60;4.18;;;;;;;11.35;100.00;100747.41;5031050;28;20047;-74
2023/09/15 04:17:38;;;;;;;9.75;4.00;;;;;;;11.32;100.00;100738.75;5032889;28;20072;-73
2023/09/15 04:20:09;;;;;;;7.25;3.63;;;;;;;11.30;100.00;100741.47;5040514;28;20410;-72
2023/09/15 04:22:42;;;;;;;11.73;4.50;;;;;;;11.25;100.00;100725.75;5067275;28;20060;-72
2023/09/15 04:25:12;;;;;;;5.50;3.85;;;;;;;11.23;100.00;100716.13;5036764;28;20038;-72
2023/09/15 04:27:41;;;;;;;8.15;3.78;;;;;;;11.32;100.00;100742.25;5036858;28;20509;-73
2023/09/15 04:30:10;;;;;;;9.23;3.97;;;;;;;11.34;100.00;100744.81;5044343;28;20072;-72
2023/09/15 04:32:47;;;;;;;8.02;3.55;;;;;;;11.32;100.00;100742.25;5038099;28;20037;-72
2023/09/15 04:35:17;;;;;;;9.13;3.85;;;;;;;11.25;100.00;100735.47;5018470;28;20050;-73
2023/09/15 04:37:47;;;;;;;11.07;5.00;;;;;;;11.18;100.00;100734.03;5033588;28;20042;-72
2023/09/15 04:40:15;;;;;;;11.98;4.25;;;;;;;11.20;100.00;100737.47;5039345;28;20053;-73
2023/09/15 04:42:44;;;;;;;8.50;4.10;;;;;;;11.05;100.00;100709.00;5028127;28;20413;-73
2023/09/15 04:45:13;;;;;;;6.95;3.97;;;;;;;11.30;100.00;100743.25;5035644;28;20049;-75
2023/09/15 04:47:42;;;;;;;6.78;3.85;;;;;;;11.30;100.00;100744.09;5014682;28;20052;-74
2023/09/15 04:50:14;;;;;;;10.68;4.20;;;;;;;11.28;100.00;100745.09;5040806;28;20079;-73
2023/09/15 04:52:49;;;;;;;6.97;3.85;;;;;;;11.33;100.00;100751.94;5038842;28;20045;-73
2023/09/15 04:55:17;;;;;;;;;;;;;;;11.34;100.00;100753.63;5036271;28;20428;-73
2023/09/15 04:57:47;;;;;;;11.73;4.15;;;;;;;11.32;100.00;100758.16;5037141;28;19920;-72
2023/09/15 05:00:23;;;;;;;8.75;4.47;;;;;;;11.34;100.00;100752.75;5033985;28;20041;-73
2023/09/15 05:02:57;;;;;;;9.43;4.30;;;;;;;11.37;100.00;100750.84;5041234;28;20052;-73
2023/09/15 05:05:28;;;;;;;7.97;4.25;;;;;;;11.38;100.00;100746.41;5020343;28;20450;-73
2023/09/15 05:07:58;;;;;;;9.23;4.50;;;;;;;11.30;100.00;100728.19;5032401;28;20186;-72
2023/09/15 05:10:26;;;;;;;8.23;4.60;;;;;;;11.43;100.00;100742.63;5026586;28;20453;-72
2023/09/15 05:12:56;;;;;;;8.77;4.15;;;;;;;11.45;100.00;100747.88;5037065;28;20470;-75
2023/09/15 05:15:25;;;;;;;6.70;4.13;;;;;;;11.44;100.00;100744.34;5046599;28;20509;-75
2023/09/15 05:17:53;;;;;;;10.00;4.38;;;;;;;11.44;100.00;100740.84;5039029;28;20504;-74
2023/09/15 05:20:21;;;;;;;9.85;4.22;;;;;;;11.41;100.00;100741.81;5034680;28;20498;-72
2023/09/15 05:22:49;;;;;;;7.90;4.05;;;;;;;11.43;100.00;100744.41;5043969;28;20057;-73
2023/09/15 05:25:19;;;;;;;7.28;3.90;;;;;;;11.45;100.00;100743.41;5047965;28;20035;-73
2023/09/15 05:27:47;;;;;;;9.68;3.72;;;;;;;11.46;100.00;100755.75;5040176;28;20132;-71
2023/09/15 05:30:16;;;;;;;8.70;4.40;;;;;;;11.47;100.00;100762.78;5046319;28;20072;-73
2023/09/15 05:32:45;;;;;;;6.72;4.55;;;;;;;11.46;100.00;100769.00;5043955;28;20961;-73
2023/09/15 05:35:13;;;;;;;8.50;4.20;;;;;;;11.41;100.00;100757.75;5041149;28;20129;-74
2023/09/15 05:37:41;;;;;;;8.15;4.00;;;;;;;11.44;100.00;100768.22;5035552;28;20045;-72
2023/09/15 05:40:10;;;;;;;9.02;4.70;;;;;;;11.49;100.00;100768.03;5039441;28;20131;-72
2023/09/15 05:42:41;;;;;;;8.00;4.07;;;;;;;11.54;100.00;100768.66;5040138;28;20053;-73
2023/09/15 05:45:10;;;;;;;8.13;4.00;;;;;;;11.62;100.00;100773.63;5039226;28;20148;-72
2023/09/15 05:47:37;;;;;;;7.28;4.05;;;;;;;11.65;100.00;100773.50;5030721;28;20052;-74
2023/09/15 05:50:08;;;;;;;11.10;4.20;;;;;;;11.69;100.00;100769.75;5037780;28;20041;-74
2023/09/15 05:52:36;;;;;;;7.22;4.38;;;;;;;11.67;100.00;100761.00;5047538;28;20099;-75
2023/09/15 05:55:08;;;;;;;7.47;4.13;;;;;;;11.77;100.00;100775.63;5039724;28;20109;-73
2023/09/15 05:57:36;;;;;;;8.13;4.20;;;;;;;11.80;100.00;100776.34;5031089;28;20050;-74
2023/09/15 06:00:07;;;;;;;7.95;3.60;;;;;;;11.84;100.00;100783.22;5045918;28;20044;-73
2023/09/15 06:02:42;;;;;;;9.57;4.30;;;;;;;11.88;100.00;100775.97;5049867;28;20052;-73
2023/09/15 06:05:11;;;;;;;10.55;4.00;;;;;;;11.91;100.00;100773.19;5029836;28;20567;-73
2023/09/15 06:07:39;;;;;;;6.97;3.95;;;;;;;11.90;100.00;100766.16;5038839;28;20113;-72
2023/09/15 06:10:08;;;;;;;8.45;4.78;;;;;;;12.00;100.00;100772.75;5045211;28;20042;-73
2023/09/15 06:12:36;;;;;;;7.75;3.95;;;;;;;12.10;100.00;100776.72;5049536;28;20419;-72
2023/09/15 06:15:06;;;;;;;7.93;4.28;;;;;;;12.20;100.00;100770.00;5043404;28;20418;-74
2023/09/15 06:17:35;;;;;;;7.03;4.13;;;;;;;12.18;100.00;100750.63;5034195;28;20067;-74
2023/09/15 06:20:04;;;;;;;6.75;3.70;;;;;;;12.37;100.00;100768.34;5034882;28;20128;-73
2023/09/15 06:22:34;;;;;;;10.23;4.07;;;;;;;12.41;100.00;100769.94;5038321;28;20072;-74
2023/09/15 06:25:03;;;;;;;7.13;3.97;;;;;;;12.45;100.00;100769.69;5040006;28;20045;-73
2023/09/15 06:27:33;;;;;;;8.38;3.92;;;;;;;12.54;100.00;100774.56;5036639;28;20065;-74
2023/09/15 06:30:04;;;;;;;7.18;4.15;;;;;;;12.68;100.00;100776.53;5044058;28;20052;-73
2023/09/15 06:32:33;;;;;;;5.88;3.80;;;;;;;12.74;100.00;100768.28;5024736;28;20140;-73
2023/09/15 06:35:01;;;;;;;9.15;4.50;;;;;;;12.78;100.00;100768.94;5042476;28;20048;-74
2023/09/15 06:37:29;;;;;;;6.97;3.92;;;;;;;12.92;100.00;100769.13;5031097;28;20436;-73
2023/09/15 06:39:57;;;;;;;5.65;3.67;;;;;;;13.04;100.00;100765.00;5036882;28;20388;-74
2023/09/15 06:42:25;;;;;;;8.55;4.07;;;;;;;13.22;100.00;100767.56;5040108;28;20033;-74
2023/09/15 06:44:53;;;;;;;11.00;4.18;;;;;;;13.31;100.00;100768.91;5038645;28;20049;-73
2023/09/15 06:47:20;;;;;;;7.25;3.88;;;;;;;13.54;100.00;100773.88;5030389;28;20048;-73
2023/09/15 06:49:52;;;;;;;8.05;3.88;;;;;;;13.84;100.00;100767.88;5034459;28;20518;-72
2023/09/15 06:52:21;;;;;;;9.90;4.55;;;;;;;14.10;100.00;100761.09;5035885;28;20607;-73
2023/09/15 06:54:48;;;;;;;9.02;4.15;;;;;;;14.31;100.00;100758.09;5035567;28;20054;-73
2023/09/15 06:57:16;;;;;;;8.85;4.45;;;;;;;14.59;100.00;100753.88;5031034;28;20037;-72
2023/09/15 06:59:44;;;;;;;8.13;4.00;;;;;;;14.87;100.00;100761.97;5037403;28;20523;-74
2023/09/15 07:02:12;;;;;;;8.15;4.05;;;;;;;15.13;100.00;100763.09;5035549;28;20057;-73
2023/09/15 07:04:45;;;;;;;6.93;3.60;;;;;;;15.35;100.00;100750.16;5035287;28;20108;-73
2023/09/15 07:07:16;;;;;;;10.68;4.43;;;;;;;15.58;100.00;100754.16;5031653;28;20056;-74
2023/09/15 07:09:44;;;;;;;6.17;4.00;;;;;;;15.77;100.00;100759.16;5039283;28;20037;-72
2023/09/15 07:12:12;;;;;;;8.50;5.03;;;;;;;15.94;100.00;100758.97;5036505;28;20468;-74
2023/09/15 07:14:41;;;;;;;6.93;4.15;;;;;;;16.26;100.00;100754.22;5046564;28;20067;-72
2023/09/15 07:17:10;;;;;;;7.47;4.38;;;;;;;16.58;100.00;100752.13;5032559;28;20049;-73
2023/09/15 07:19:44;;;;;;;;;;;;;;;16.84;100.00;100751.25;5038478;28;20049;-74
2023/09/15 07:22:11;;;;;;;8.45;3.83;;;;;;;16.98;100.00;100754.84;5036316;28;19979;-73
2023/09/15 07:24:41;;;;;;;6.80;4.07;;;;;;;17.10;100.00;100757.53;5039726;28;20045;-74
2023/09/15 07:27:10;;;;;;;6.38;4.07;;;;;;;17.19;100.00;100762.25;5035592;28;20054;-74
2023/09/15 07:29:38;;;;;;;6.82;4.53;;;;;;;17.16;100.00;100750.91;5038757;28;20437;-73
2023/09/15 07:32:07;;;;;;;8.82;4.80;;;;;;;17.38;100.00;100751.13;5040737;28;20568;-73
2023/09/15 07:34:35;;;;;;;6.45;4.20;;;;;;;17.27;100.00;100748.38;5035814;28;20160;-69
2023/09/15 07:37:05;;;;;;;8.43;4.82;;;;;;;17.45;100.00;100759.63;5045856;28;20065;-69
2023/09/15 07:39:33;;;;;;;8.27;4.90;;;;;;;17.24;100.00;100737.84;5042766;28;20116;-71
2023/09/15 07:42:07;;;;;;;7.72;5.28;;;;;;;17.32;100.00;100750.69;5037642;28;20045;-69
2023/09/15 07:44:36;;;;;;;6.43;4.60;;;;;;;17.46;100.00;100751.47;5045701;28;20233;-67
2023/09/15 07:47:06;;;;;;;7.65;5.13;;;;;;;17.50;100.00;100749.41;5040724;28;20037;-68
2023/09/15 07:49:34;;;;;;;6.25;4.72;;;;;;;17.58;100.00;100744.41;5044259;28;20463;-67
2023/09/15 07:52:03;;;;;;;7.32;5.40;;;;;;;17.73;100.00;100729.09;5035086;28;20552;-71
2023/09/15 07:54:30;;;;;;;8.02;5.07;;;;;;;17.87;100.00;100739.69;5038094;28;20052;-68
2023/09/15 07:57:00;;;;;;;7.78;5.30;;;;;;;18.08;100.00;100739.97;5038704;28;20104;-69
2023/09/15 07:59:30;;;;;;;8.43;5.03;;;;;;;18.14;100.00;100743.03;5041193;28;20108;-69
2023/09/15 08:01:58;;;;;;;7.45;5.30;;;;;;;18.24;100.00;100735.19;5039103;28;20113;-70
2023/09/15 08:04:51;;;;;;;8.38;5.53;;;;;;;18.30;100.00;100740.09;5035767;28;20133;-70
2023/09/15 08:07:20;;;;;;;7.45;5.47;;;;;;;18.07;100.00;100736.41;5021994;28;20136;-69
2023/09/15 08:09:48;;;;;;;6.40;5.32;;;;;;;18.02;100.00;100738.56;5039741;28;20041;-69
2023/09/15 08:12:19;;;;;;;9.32;6.57;;;;;;;18.01;100.00;100730.63;5037967;28;20136;-68
2023/09/15 08:14:49;;;;;;;7.88;5.50;;;;;;;17.94;100.00;100730.25;5037360;28;20065;-69
2023/09/15 08:17:18;;;;;;;7.70;5.80;;;;;;;17.92;100.00;100734.00;5034235;28;21589;-69
2023/09/15 08:20:00;;;;;;;9.15;6.43;;;;;;;17.99;100.00;100725.38;5034719;28;20042;-69
2023/09/15 08:22:32;;;;;;;10.38;5.97;;;;;;;18.15;100.00;100731.34;5035158;28;20095;-70
2023/09/15 08:25:01;;;;;;;8.82;6.00;;;;;;;18.35;100.00;100731.72;5047735;28;20042;-69
2023/09/15 08:27:30;;;;;;;7.80;6.03;;;;;;;18.43;100.00;100713.22;5032645;28;20045;-68
2023/09/15 08:29:59;;;;;;;6.22;5.53;;;;;;;18.55;100.00;100713.19;5036764;28;20044;-70
2023/09/15 08:32:27;;;;;;;9.43;5.72;;;;;;;18.94;100.00;100729.91;5018793;28;20056;-69
2023/09/15 08:34:58;;;;;;;7.78;6.03;;;;;;;19.05;100.00;100713.84;5032633;28;20100;-67
2023/09/15 08:37:25;;;;;;;6.80;5.90;;;;;;;19.06;100.00;100715.56;5033058;28;20119;-68
2023/09/15 08:39:54;;;;;;;6.97;5.80;;;;;;;19.03;100.00;100720.31;5036744;28;20521;-69
2023/09/15 08:42:26;;;;;;;6.70;5.15;;;;;;;18.85;100.00;100726.13;5035079;28;20083;-70
2023/09/15 08:44:56;;;;;;;8.38;5.80;;;;;;;18.74;100.00;100723.38;5042836;28;20068;-69
2023/09/15 08:47:31;;;;;;;8.35;6.38;;;;;;;18.49;100.00;100715.44;5015862;28;20041;-70
2023/09/15 08:50:03;;;;;;;8.63;6.38;;;;;;;18.35;100.00;100715.63;5032072;28;20065;-72
2023/09/15 08:52:34;;;;;;;7.90;5.88;;;;;;;18.27;100.00;100712.63;5036314;28;20049;-70
2023/09/15 08:55:03;;;;;;;7.88;5.93;;;;;;;18.20;100.00;100717.63;5040549;28;20417;-75
2023/09/15 08:57:34;;;;;;;7.10;5.45;;;;;;;18.09;100.00;100706.84;5040280;28;20646;-75
2023/09/15 09:00:08;;;;;;;8.35;5.40;;;;;;;18.14;100.00;100715.38;5035027;28;20110;-74
2023/09/15 09:02:39;;;;;;;7.53;5.63;;;;;;;18.20;100.00;100712.25;5046361;28;20529;-71
2023/09/15 09:05:09;;;;;;;7.85;6.35;;;;;;;18.19;100.00;100710.53;5045008;28;20060;-73
2023/09/15 09:07:38;;;;;;;9.45;6.43;;;;;;;18.31;100.00;100706.94;5020556;28;20045;-79
2023/09/15 09:10:09;;;;;;;8.27;6.00;;;;;;;18.36;100.00;100698.56;5039907;28;20042;-73
2023/09/15 09:12:38;;;;;;;8.23;6.17;;;;;;;18.51;100.00;100705.47;5042648;28;20038;-73
2023/09/15 09:15:07;;;;;;;6.15;5.55;;;;;;;18.58;100.00;100691.50;5040728;28;20495;-73
2023/09/15 09:17:40;;;;;;;7.32;5.80;;;;;;;18.68;100.00;100705.09;5038516;28;20554;-75
2023/09/15 09:20:09;;;;;;;7.10;6.25;;;;;;;18.79;100.00;100713.16;5042278;28;20457;-73
2023/09/15 09:22:37;;;;;;;10.27;6.45;;;;;;;18.90;100.00;100702.47;5049128;28;20070;-71
2023/09/15 09:25:07;;;;;;;8.70;6.57;;;;;;;18.94;100.00;100700.41;5034561;28;20098;-73
2023/09/15 09:27:35;;;;;;;6.90;6.13;;;;;;;18.95;100.00;100706.63;5036873;28;20045;-74
2023/09/15 09:30:05;;;;;;;7.13;5.68;;;;;;;19.04;100.00;100698.75;5051557;28;20048;-72
2023/09/15 09:32:37;;;;;;;8.00;6.30;;;;;;;19.18;100.00;100694.97;5037440;28;20544;-72
2023/09/15 09:35:07;;;;;;;7.68;6.05;;;;;;;19.28;100.00;100685.22;5039970;28;20107;-73
2023/09/15 09:37:35;;;;;;;10.03;6.60;;;;;;;19.47;100.00;100693.53;5036100;28;20033;-75
2023/09/15 09:40:03;;;;;;;6.80;5.75;;;;;;;19.40;100.00;100681.56;5038867;28;20484;-73
2023/09/15 09:42:31;;;;;;;8.52;6.15;;;;;;;19.52;100.00;100693.19;5041656;28;20469;-73
2023/09/15 09:44:59;;;;;;;7.68;5.78;;;;;;;19.61;100.00;100685.28;5037618;28;20075;-74
2023/09/15 09:47:28;;;;;;;7.93;5.65;;;;;;;19.76;100.00;100675.13;5035653;28;20050;-75
2023/09/15 09:49:56;;;;;;;7.70;5.60;;;;;;;19.94;100.00;100678.16;5040730;28;20049;-73
2023/09/15 09:52:27;;;;;;;8.15;6.47;;;;;;;20.01;100.00;100667.72;5042195;28;20525;-74
2023/09/15 09:54:55;;;;;;;10.75;6.22;;;;;;;20.08;98.60;100658.19;5039832;28;20052;-73
2023/09/15 09:57:25;;;;;;;6.70;6.00;;;;;;;20.20;98.94;100667.94;5038018;28;20938;-74
2023/09/15 09:59:55;;;;;;;6.90;5.82;;;;;;;20.16;98.25;100651.19;5043128;28;20580;-74
2023/09/15 10:02:24;;;;;;;7.75;5.78;;;;;;;20.24;96.97;100664.88;5054541;28;20053;-73
2023/09/15 10:04:51;;;;;;;8.75;5.63;;;;;;;20.31;95.87;100673.25;5037375;28;20053;-74
2023/09/15 10:07:21;;;;;;;7.32;5.28;;;;;;;20.41;95.85;100670.72;5047367;28;20051;-73
2023/09/15 10:09:53;;;;;;;8.50;5.40;;;;;;;20.57;94.01;100671.13;5031055;28;20060;-72
2023/09/15 10:12:23;;;;;;;7.97;5.68;;;;;;;20.46;93.65;100626.28;5043598;28;20051;-74
2023/09/15 10:14:52;;;;;;;7.65;5.30;;;;;;;20.77;92.97;100656.84;5021638;28;20045;-73
2023/09/15 10:17:23;;;;;;;7.38;5.57;;;;;;;20.85;91.46;100665.13;5040695;28;20084;-73
2023/09/15 10:19:53;;;;;;;8.98;6.22;;;;;;;20.88;91.14;100664.00;5035814;28;20051;-73
2023/09/15 10:22:21;;;;;;;7.43;5.45;;;;;;;20.86;91.30;100649.81;5040900;28;20106;-73
2023/09/15 10:25:00;;;;;;;6.53;5.00;;;;;;;21.02;90.95;100652.91;5034100;28;20160;-75
2023/09/15 10:27:29;;;;;;;7.00;5.07;;;;;;;21.12;90.85;100651.09;5032151;28;20080;-73
2023/09/15 10:30:04;;;;;;;8.98;5.45;;;;;;;21.25;89.41;100651.75;5034278;28;20045;-75
2023/09/15 10:32:36;;;;;;;8.38;5.50;;;;;;;21.31;86.91;100639.63;5033784;28;20117;-73
2023/09/15 10:35:05;;;;;;;7.22;5.80;;;;;;;21.34;88.44;100632.13;5038699;28;20048;-74
2023/09/15 10:37:36;;;;;;;5.20;4.70;;;;;;;21.44;86.18;100634.84;5034860;28;20049;-73
2023/09/15 10:40:07;;;;;;;5.80;4.60;;;;;;;21.56;81.96;100638.31;5035076;28;20029;-73
2023/09/15 10:42:35;;;;;;;4.85;4.35;;;;;;;21.68;80.15;100640.75;5041593;28;20049;-76
2023/09/15 10:45:11;;;;;;;5.35;4.45;;;;;;;21.80;79.96;100630.72;5039700;28;20038;-73
2023/09/15 10:47:39;;;;;;;6.95;5.15;;;;;;;21.87;78.29;100625.63;5038576;28;20047;-73
2023/09/15 10:50:08;;;;;;;7.38;5.63;;;;;;;21.97;77.53;100621.94;5039444;28;20048;-73
2023/09/15 10:52:41;;;;;;;7.90;5.40;;;;;;;22.01;78.21;100623.41;5035314;28;20048;-73
2023/09/15 10:55:17;;;;;;;6.07;5.25;;;;;;;22.05;75.22;100602.41;5036484;28;20048;-74
2023/09/15 10:57:45;;;;;;;7.50;4.78;;;;;;;22.25;74.21;100611.34;5038483;28;20071;-73
2023/09/15 11:00:15;;;;;;;6.88;5.22;;;;;;;22.34;72.34;100602.44;5027733;28;20048;-73
2023/09/15 11:02:46;;;;;;;6.00;4.97;;;;;;;22.37;72.16;100588.63;5039153;28;20072;-74
2023/09/15 11:05:15;;;;;;;8.23;5.03;;;;;;;22.50;69.95;100588.38;5045483;28;20073;-72
2023/09/15 11:07:43;;;;;;;6.60;4.68;;;;;;;22.52;69.36;100589.91;5043980;28;20094;-75
2023/09/15 11:10:13;;;;;;;5.30;4.60;;;;;;;22.58;71.43;100589.34;5033416;28;20060;-73
2023/09/15 11:12:41;;;;;;;6.18;5.38;;;;;;;22.53;69.60;100597.00;5047669;28;20045;-74
2023/09/15 11:15:10;;;;;;;8.00;4.93;;;;;;;22.46;72.60;100592.34;5045325;28;20091;-72
2023/09/15 11:17:41;;;;;;;6.70;4.63;;;;;;;22.55;72.31;100589.63;5038232;28;20128;-71
2023/09/15 11:20:11;;;;;;;7.38;4.40;;;;;;;22.74;68.19;100589.59;5025543;28;20128;-74
2023/09/15 11:22:40;;;;;;;7.53;4.75;;;;;;;22.85;66.44;100591.28;5041526;28;20525;-72
2023/09/15 11:25:10;;;;;;;6.78;4.88;;;;;;;22.94;67.43;100581.47;5025661;28;20489;-73
2023/09/15 11:27:49;;;;;;;6.32;4.93;;;;;;;23.01;62.35;100579.88;5036027;28;20483;-71
2023/09/15 11:30:19;;;;;;;5.38;4.30;;;;;;;23.15;61.45;100590.19;5030702;28;20493;-71
2023/09/15 11:32:49;;;;;;;7.95;4.97;;;;;;;23.07;63.77;100580.16;5034896;28;20045;-69